sensor_id;sensor_type;location;lat;lon;timestamp;pressure;altitude;pressure_sealevel;temperature;humidity
74437;BME280;62868;52.360;30.424;2023-07-20T00:00:18;1019.3;;;17.9;52.2
74437;BME280;62868;52.360;30.424;2023-07-20T00:05:04;1019.3;;;17.9;52.3
74437;BME280;62868;52.360;30.424;2023-07-20T00:10:44;1019.3;;;17.8;52.6
74437;BME280;62868;52.360;30.424;2023-07-20T00:15:52;1019.3;;;17.8;52.9
74437;BME280;62868;52.360;30.424;2023-07-20T00:20:52;1019.3;;;17.8;53.1
74437;BME280;62868;52.360;30.424;2023-07-20T00:25:30;1019.3;;;17.8;53.1
74437;BME280;62868;52.360;30.424;2023-07-20T00:30:24;1019.2;;;17.8;53.4
74437;BME280;62868;52.360;30.424;2023-07-20T00:35:32;1019.2;;;17.8;53.5
74437;BME280;62868;52.360;30.424;2023-07-20T00:40:18;1019.2;;;17.9;53.6
74437;BME280;62868;52.360;30.424;2023-07-20T00:45:12;1019.1;;;17.9;53.5
74437;BME280;62868;52.360;30.424;2023-07-20T00:50:44;1019.1;;;17.9;53.5
74437;BME280;62868;52.360;30.424;2023-07-20T00:55:52;1019.1;;;18;53.6
74437;BME280;62868;52.360;30.424;2023-07-20T01:00:12;1019.2;;;18;53.6
74437;BME280;62868;52.360;30.424;2023-07-20T01:05:33;1019.2;;;17.9;53.7
74437;BME280;62868;52.360;30.424;2023-07-20T01:10:53;1019.3;;;17.9;53.8
74437;BME280;62868;52.360;30.424;2023-07-20T01:15:38;1019.2;;;17.8;53.8
74437;BME280;62868;52.360;30.424;2023-07-20T01:20:12;1019.3;;;17.7;53.9
74437;BME280;62868;52.360;30.424;2023-07-20T01:25:44;1019.2;;;17.7;54
74437;BME280;62868;52.360;30.424;2023-07-20T01:30:45;1019.2;;;17.6;54.1
74437;BME280;62868;52.360;30.424;2023-07-20T01:35:06;1019.2;;;17.7;54.1
74437;BME280;62868;52.360;30.424;2023-07-20T01:40:30;1019.2;;;17.7;54
74437;BME280;62868;52.360;30.424;2023-07-20T01:45:52;1019.2;;;17.8;54
74437;BME280;62868;52.360;30.424;2023-07-20T01:50:44;1019.2;;;17.8;54
74437;BME280;62868;52.360;30.424;2023-07-20T01:55:18;1019.2;;;17.8;54.2
74437;BME280;62868;52.360;30.424;2023-07-20T02:00:24;1019.2;;;17.8;54.2
74437;BME280;62868;52.360;30.424;2023-07-20T02:05:52;1019.2;;;17.7;54.4
74437;BME280;62868;52.360;30.424;2023-07-20T02:10:12;1019.2;;;17.7;54.4
74437;BME280;62868;52.360;30.424;2023-07-20T02:15:06;1019.3;;;17.8;54.5
74437;BME280;62868;52.360;30.424;2023-07-20T02:20:14;1019.2;;;17.8;54.6
74437;BME280;62868;52.360;30.424;2023-07-20T02:25:44;1019.2;;;17.9;54.7
74437;BME280;62868;52.360;30.424;2023-07-20T02:30:52;1019.3;;;17.9;54.6
74437;BME280;62868;52.360;30.424;2023-07-20T02:35:06;1019.3;;;18;54.7
74437;BME280;62868;52.360;30.424;2023-07-20T02:40:06;1019.4;;;18;54.8
74437;BME280;62868;52.360;30.424;2023-07-20T02:45:04;1019.4;;;18.1;54.7
74437;BME280;62868;52.360;30.424;2023-07-20T02:50:52;1019.4;;;18.1;54.7
74437;BME280;62868;52.360;30.424;2023-07-20T02:55:38;1019.4;;;18.2;54.6
74437;BME280;62868;52.360;30.424;2023-07-20T03:00:42;1019.4;;;18.3;54.7
74437;BME280;62868;52.360;30.424;2023-07-20T03:05:50;1019.4;;;18.3;54.6
74437;BME280;62868;52.360;30.424;2023-07-20T03:10:32;1019.4;;;18.4;54.5
74437;BME280;62868;52.360;30.424;2023-07-20T03:15:12;1019.4;;;18.7;54.2
74437;BME280;62868;52.360;30.424;2023-07-20T03:20:38;1019.4;;;19;53.6
74437;BME280;62868;52.360;30.424;2023-07-20T03:25:52;1019.5;;;19.3;53.4
74437;BME280;62868;52.360;30.424;2023-07-20T03:30:32;1019.4;;;19.4;53.5
74437;BME280;62868;52.360;30.424;2023-07-20T03:35:06;1019.4;;;19.5;53.3
74437;BME280;62868;52.360;30.424;2023-07-20T03:40:53;1019.4;;;19.8;53
74437;BME280;62868;52.360;30.424;2023-07-20T03:45:16;1019.5;;;20.1;52.5
74437;BME280;62868;52.360;30.424;2023-07-20T03:50:12;1019.4;;;20.8;51.6
74437;BME280;62868;52.360;30.424;2023-07-20T03:55:32;1019.4;;;20.8;51.8
74437;BME280;62868;52.360;30.424;2023-07-20T04:00:32;1019.4;;;20.7;51.9
74437;BME280;62868;52.360;30.424;2023-07-20T04:05:53;1019.4;;;20.6;52.2
74437;BME280;62868;52.360;30.424;2023-07-20T04:10:38;1019.5;;;20.7;52.3
74437;BME280;62868;52.360;30.424;2023-07-20T04:15:30;1019.4;;;21;52
74437;BME280;62868;52.360;30.424;2023-07-20T04:20:06;1019.5;;;22.2;50.7
74437;BME280;62868;52.360;30.424;2023-07-20T04:25:12;1019.4;;;23.5;49.5
74437;BME280;62868;52.360;30.424;2023-07-20T04:30:12;1019.4;;;24.3;48.7
74437;BME280;62868;52.360;30.424;2023-07-20T04:35:45;1019.4;;;24.6;48.4
74437;BME280;62868;52.360;30.424;2023-07-20T04:40:32;1019.4;;;25.1;47.9
74437;BME280;62868;52.360;30.424;2023-07-20T04:45:52;1019.3;;;25.5;47.1
74437;BME280;62868;52.360;30.424;2023-07-20T04:50:30;1019.4;;;25.7;46.4
74437;BME280;62868;52.360;30.424;2023-07-20T04:55:20;1019.4;;;26;45.7
74437;BME280;62868;52.360;30.424;2023-07-20T05:00:32;1019.4;;;26.1;45.1
74437;BME280;62868;52.360;30.424;2023-07-20T05:05:16;1019.5;;;26.1;45
74437;BME280;62868;52.360;30.424;2023-07-20T05:10:22;1019.5;;;26.4;44.5
74437;BME280;62868;52.360;30.424;2023-07-20T05:15:24;1019.5;;;26.6;44.1
74437;BME280;62868;52.360;30.424;2023-07-20T05:20:52;1019.4;;;26.8;43.8
74437;BME280;62868;52.360;30.424;2023-07-20T05:25:18;1019.4;;;27.1;43.4
74437;BME280;62868;52.360;30.424;2023-07-20T05:30:52;1019.5;;;27.4;42.9
74437;BME280;62868;52.360;30.424;2023-07-20T05:35:52;1019.5;;;27.6;42.4
74437;BME280;62868;52.360;30.424;2023-07-20T05:40:52;1019.4;;;27.9;41.7
74437;BME280;62868;52.360;30.424;2023-07-20T05:45:24;1019.4;;;27.8;41.3
74437;BME280;62868;52.360;30.424;2023-07-20T05:50:38;1019.3;;;27.9;40.8
74437;BME280;62868;52.360;30.424;2023-07-20T05:55:32;1019.2;;;27.9;40.4
74437;BME280;62868;52.360;30.424;2023-07-20T06:00:12;1019.1;;;28.5;39.9
74437;BME280;62868;52.360;30.424;2023-07-20T06:05:24;1019.1;;;28.5;39.6
74437;BME280;62868;52.360;30.424;2023-07-20T06:10:36;1019.1;;;28.2;39.7
74437;BME280;62868;52.360;30.424;2023-07-20T06:15:44;1019.1;;;28.3;39.4
74437;BME280;62868;52.360;30.424;2023-07-20T06:20:24;1019.1;;;28.4;39.2
74437;BME280;62868;52.360;30.424;2023-07-20T06:25:12;1019.1;;;28.8;38.8
74437;BME280;62868;52.360;30.424;2023-07-20T06:30:08;1019;;;29;38.5
74437;BME280;62868;52.360;30.424;2023-07-20T06:35:24;1018.8;;;29.4;37.8
74437;BME280;62868;52.360;30.424;2023-07-20T06:40:12;1018.8;;;29.6;37.6
74437;BME280;62868;52.360;30.424;2023-07-20T06:45:32;1018.8;;;30.1;37.2
74437;BME280;62868;52.360;30.424;2023-07-20T06:50:44;1018.8;;;30.1;37.1
74437;BME280;62868;52.360;30.424;2023-07-20T06:55:52;1018.9;;;30.5;36.7
74437;BME280;62868;52.360;30.424;2023-07-20T07:00:30;1018.9;;;31.1;36.2
74437;BME280;62868;52.360;30.424;2023-07-20T07:05:06;1018.9;;;31.1;36.1
74437;BME280;62868;52.360;30.424;2023-07-20T07:10:12;1018.9;;;31.4;35.9
74437;BME280;62868;52.360;30.424;2023-07-20T07:15:52;1018.8;;;31.6;35.6
74437;BME280;62868;52.360;30.424;2023-07-20T07:20:52;1018.7;;;31.8;35.4
74437;BME280;62868;52.360;30.424;2023-07-20T07:25:52;1018.8;;;32.1;35.1
74437;BME280;62868;52.360;30.424;2023-07-20T07:30:52;1018.7;;;32.2;34.8
74437;BME280;62868;52.360;30.424;2023-07-20T07:35:38;1018.7;;;32.5;34.5
74437;BME280;62868;52.360;30.424;2023-07-20T07:40:06;1018.6;;;32.5;34.2
74437;BME280;62868;52.360;30.424;2023-07-20T07:45:38;1018.6;;;32.8;34
74437;BME280;62868;52.360;30.424;2023-07-20T07:50:53;1018.6;;;32.6;33.9
74437;BME280;62868;52.360;30.424;2023-07-20T07:55:32;1018.6;;;32.2;33.9
74437;BME280;62868;52.360;30.424;2023-07-20T08:00:44;1018.5;;;32;33.7
74437;BME280;62868;52.360;30.424;2023-07-20T08:05:50;1018.4;;;31.8;33.7
74437;BME280;62868;52.360;30.424;2023-07-20T08:10:06;1018.4;;;31.8;33.5
74437;BME280;62868;52.360;30.424;2023-07-20T08:15:06;1018.4;;;32.2;33.3
74437;BME280;62868;52.360;30.424;2023-07-20T08:20:06;1018.3;;;32.4;33.1
74437;BME280;62868;52.360;30.424;2023-07-20T08:25:30;1018.3;;;32;33.1
74437;BME280;62868;52.360;30.424;2023-07-20T08:30:39;1018.3;;;31.4;33.4
74437;BME280;62868;52.360;30.424;2023-07-20T08:35:08;1018.3;;;30.9;33.6
74437;BME280;62868;52.360;30.424;2023-07-20T08:40:30;1018.3;;;30.9;33.7
74437;BME280;62868;52.360;30.424;2023-07-20T08:45:12;1018.2;;;31.2;33.4
74437;BME280;62868;52.360;30.424;2023-07-20T08:50:06;1018.2;;;31.4;33.4
74437;BME280;62868;52.360;30.424;2023-07-20T08:55:06;1018.2;;;31.9;32.9
74437;BME280;62868;52.360;30.424;2023-07-20T09:00:25;1018;;;32.3;32.5
74437;BME280;62868;52.360;30.424;2023-07-20T09:05:26;1018;;;32.6;32.4
74437;BME280;62868;52.360;30.424;2023-07-20T09:10:50;1017.9;;;33;32
74437;BME280;62868;52.360;30.424;2023-07-20T09:15:07;1017.9;;;33.4;31.6
74437;BME280;62868;52.360;30.424;2023-07-20T09:20:06;1017.8;;;34;31.1
74437;BME280;62868;52.360;30.424;2023-07-20T09:25:32;1017.8;;;34.4;30.6
74437;BME280;62868;52.360;30.424;2023-07-20T09:30:13;1017.7;;;34.4;30.5
74437;BME280;62868;52.360;30.424;2023-07-20T09:35:06;1017.7;;;33.9;30.8
74437;BME280;62868;52.360;30.424;2023-07-20T09:40:50;1017.6;;;34;30.3
74437;BME280;62868;52.360;30.424;2023-07-20T09:45:50;1017.5;;;33.5;30.3
74437;BME280;62868;52.360;30.424;2023-07-20T09:50:10;1017.5;;;33;30.6
74437;BME280;62868;52.360;30.424;2023-07-20T09:55:26;1017.5;;;32.7;30.6
74437;BME280;62868;52.360;30.424;2023-07-20T10:00:52;1017.4;;;32.9;30.3
74437;BME280;62868;52.360;30.424;2023-07-20T10:05:18;1017.3;;;33.3;30
74437;BME280;62868;52.360;30.424;2023-07-20T10:10:13;1017.2;;;33.7;29.8
74437;BME280;62868;52.360;30.424;2023-07-20T10:15:09;1017.2;;;33.7;29.7
74437;BME280;62868;52.360;30.424;2023-07-20T10:20:44;1017.2;;;32.8;30.2
74437;BME280;62868;52.360;30.424;2023-07-20T10:25:12;1017.2;;;32.4;30.4
74437;BME280;62868;52.360;30.424;2023-07-20T10:30:12;1017.3;;;32.1;30.7
74437;BME280;62868;52.360;30.424;2023-07-20T10:35:53;1017.4;;;31.6;31.1
74437;BME280;62868;52.360;30.424;2023-07-20T10:40:55;1017.5;;;31.4;31.3
74437;BME280;62868;52.360;30.424;2023-07-20T10:45:33;1017.6;;;31.2;31.8
74437;BME280;62868;52.360;30.424;2023-07-20T10:50:06;1017.5;;;31.1;32
74437;BME280;62868;52.360;30.424;2023-07-20T10:55:16;1017.4;;;30.8;32.3
74437;BME280;62868;52.360;30.424;2023-07-20T11:00:18;1017.2;;;31.1;32
74437;BME280;62868;52.360;30.424;2023-07-20T11:05:52;1017.1;;;31.3;31.7
74437;BME280;62868;52.360;30.424;2023-07-20T11:10:38;1017.1;;;31.6;31.7
74437;BME280;62868;52.360;30.424;2023-07-20T11:15:44;1017;;;31.6;31.8
74437;BME280;62868;52.360;30.424;2023-07-20T11:20:52;1016.9;;;31.3;32.1
74437;BME280;62868;52.360;30.424;2023-07-20T11:25:39;1017;;;31.2;32.3
74437;BME280;62868;52.360;30.424;2023-07-20T11:30:32;1017;;;30.8;32.6
74437;BME280;62868;52.360;30.424;2023-07-20T11:35:06;1016.9;;;30.7;32.7
74437;BME280;62868;52.360;30.424;2023-07-20T11:40:52;1016.8;;;30.8;32.7
74437;BME280;62868;52.360;30.424;2023-07-20T11:45:52;1016.6;;;31.1;32.8
74437;BME280;62868;52.360;30.424;2023-07-20T11:50:50;1016.6;;;31.1;32.6
74437;BME280;62868;52.360;30.424;2023-07-20T11:55:52;1016.4;;;31.4;32.4
74437;BME280;62868;52.360;30.424;2023-07-20T12:00:38;1016.4;;;31.5;32.8
74437;BME280;62868;52.360;30.424;2023-07-20T12:05:12;1016.4;;;31;33.2
74437;BME280;62868;52.360;30.424;2023-07-20T12:10:32;1016.6;;;30.3;34
74437;BME280;62868;52.360;30.424;2023-07-20T12:15:52;1016.5;;;29.4;34.9
74437;BME280;62868;52.360;30.424;2023-07-20T12:20:31;1016.3;;;29;35.2
74437;BME280;62868;52.360;30.424;2023-07-20T12:25:18;1016.3;;;28.6;35.8
74437;BME280;62868;52.360;30.424;2023-07-20T12:30:52;1016.3;;;28.2;36.4
74437;BME280;62868;52.360;30.424;2023-07-20T12:35:22;1016.3;;;27.8;37.1
74437;BME280;62868;52.360;30.424;2023-07-20T12:40:06;1016.3;;;27.5;37.8
74437;BME280;62868;52.360;30.424;2023-07-20T12:45:06;1016.3;;;27.4;38.1
74437;BME280;62868;52.360;30.424;2023-07-20T12:50:32;1016.2;;;27.4;38.4
74437;BME280;62868;52.360;30.424;2023-07-20T12:55:32;1016;;;27.3;38.6
74437;BME280;62868;52.360;30.424;2023-07-20T13:00:38;1016;;;27.2;38.9
74437;BME280;62868;52.360;30.424;2023-07-20T13:05:30;1016;;;27.3;38.8
74437;BME280;62868;52.360;30.424;2023-07-20T13:10:44;1016;;;27.3;39
74437;BME280;62868;52.360;30.424;2023-07-20T13:15:12;1016;;;27.2;39.2
74437;BME280;62868;52.360;30.424;2023-07-20T13:20:12;1016;;;27.1;39.2
74437;BME280;62868;52.360;30.424;2023-07-20T13:25:12;1016;;;26.7;39.6
74437;BME280;62868;52.360;30.424;2023-07-20T13:30:32;1015.9;;;26.4;40
74437;BME280;62868;52.360;30.424;2023-07-20T13:35:52;1015.8;;;26;40.5
74437;BME280;62868;52.360;30.424;2023-07-20T13:40:30;1015.8;;;25.7;40.9
74437;BME280;62868;52.360;30.424;2023-07-20T13:45:06;1015.8;;;25.5;41.2
74437;BME280;62868;52.360;30.424;2023-07-20T13:50:32;1015.8;;;25.4;41.5
74437;BME280;62868;52.360;30.424;2023-07-20T13:55:06;1015.8;;;25.4;41.8
74437;BME280;62868;52.360;30.424;2023-07-20T14:00:24;1015.8;;;25.3;42.1
74437;BME280;62868;52.360;30.424;2023-07-20T14:05:44;1015.8;;;25;42.4
74437;BME280;62868;52.360;30.424;2023-07-20T14:10:52;1015.8;;;24.9;42.6
74437;BME280;62868;52.360;30.424;2023-07-20T14:15:12;1015.8;;;24.8;42.9
74437;BME280;62868;52.360;30.424;2023-07-20T14:20:07;1015.9;;;24.6;43.2
74437;BME280;62868;52.360;30.424;2023-07-20T14:25:52;1015.9;;;24.5;43.6
74437;BME280;62868;52.360;30.424;2023-07-20T14:30:06;1015.9;;;24.3;43.9
74437;BME280;62868;52.360;30.424;2023-07-20T14:35:12;1016.3;;;24.1;44.3
74437;BME280;62868;52.360;30.424;2023-07-20T14:40:30;1016.9;;;24;44.8
74437;BME280;62868;52.360;30.424;2023-07-20T14:45:44;1017.2;;;23.5;46.1
74437;BME280;62868;52.360;30.424;2023-07-20T14:50:32;1017.6;;;22.7;47.5
74437;BME280;62868;52.360;30.424;2023-07-20T14:55:06;1018.1;;;21.9;48.7
74437;BME280;62868;52.360;30.424;2023-07-20T15:00:52;1018.3;;;21.4;49.4
74437;BME280;62868;52.360;30.424;2023-07-20T15:05:44;1018.3;;;21;50
74437;BME280;62868;52.360;30.424;2023-07-20T15:10:52;1018.3;;;20.7;50.6
74437;BME280;62868;52.360;30.424;2023-07-20T15:15:24;1018.3;;;20.6;51.1
74437;BME280;62868;52.360;30.424;2023-07-20T15:20:44;1018.3;;;20.6;51.2
74437;BME280;62868;52.360;30.424;2023-07-20T15:25:12;1018.3;;;20.5;51.5
74437;BME280;62868;52.360;30.424;2023-07-20T15:30:58;1018.2;;;20.4;52
74437;BME280;62868;52.360;30.424;2023-07-20T15:35:38;1018.2;;;20.3;52.5
74437;BME280;62868;52.360;30.424;2023-07-20T15:40:42;1018.1;;;20.3;52.7
74437;BME280;62868;52.360;30.424;2023-07-20T15:50:32;1018;;;20.3;53.2
74437;BME280;62868;52.360;30.424;2023-07-20T15:55:12;1018;;;20.3;53.4
74437;BME280;62868;52.360;30.424;2023-07-20T16:00:22;1018;;;20.3;53.7
74437;BME280;62868;52.360;30.424;2023-07-20T16:05:52;1017.9;;;20.2;53.7
74437;BME280;62868;52.360;30.424;2023-07-20T16:10:52;1017.8;;;20.1;53.9
74437;BME280;62868;52.360;30.424;2023-07-20T16:15:52;1017.6;;;19.9;54.2
74437;BME280;62868;52.360;30.424;2023-07-20T16:20:52;1017.6;;;19.9;54.4
74437;BME280;62868;52.360;30.424;2023-07-20T16:25:38;1017.6;;;19.9;54.5
74437;BME280;62868;52.360;30.424;2023-07-20T16:30:12;1017.6;;;19.9;54.7
74437;BME280;62868;52.360;30.424;2023-07-20T16:35:38;1017.5;;;19.8;55.1
74437;BME280;62868;52.360;30.424;2023-07-20T16:40:55;1017.5;;;19.6;55.3
74437;BME280;62868;52.360;30.424;2023-07-20T16:45:31;1017.4;;;19.6;55.4
74437;BME280;62868;52.360;30.424;2023-07-20T16:50:24;1017.3;;;19.6;55.3
74437;BME280;62868;52.360;30.424;2023-07-20T16:55:51;1017.1;;;19.5;55.5
74437;BME280;62868;52.360;30.424;2023-07-20T17:00:06;1017.1;;;19.4;55.8
74437;BME280;62868;52.360;30.424;2023-07-20T17:05:18;1017.1;;;19.2;56.1
74437;BME280;62868;52.360;30.424;2023-07-20T17:10:12;1017.1;;;19.1;56.3
74437;BME280;62868;52.360;30.424;2023-07-20T17:15:32;1017.2;;;19.1;56.3
74437;BME280;62868;52.360;30.424;2023-07-20T17:20:32;1017.2;;;19.2;56.4
74437;BME280;62868;52.360;30.424;2023-07-20T17:25:41;1017.2;;;19.3;56.6
74437;BME280;62868;52.360;30.424;2023-07-20T17:30:38;1017.2;;;19.4;56.7
74437;BME280;62868;52.360;30.424;2023-07-20T17:35:06;1017.1;;;19.4;56.6
74437;BME280;62868;52.360;30.424;2023-07-20T17:40:06;1017.1;;;19.4;56.7
74437;BME280;62868;52.360;30.424;2023-07-20T17:45:19;1017;;;19.4;56.9
74437;BME280;62868;52.360;30.424;2023-07-20T17:50:25;1016.9;;;19.3;57
74437;BME280;62868;52.360;30.424;2023-07-20T17:55:14;1017;;;19.3;57.2
74437;BME280;62868;52.360;30.424;2023-07-20T18:00:52;1017;;;19.2;57.4
74437;BME280;62868;52.360;30.424;2023-07-20T18:05:30;1017;;;19.1;57.7
74437;BME280;62868;52.360;30.424;2023-07-20T18:10:24;1017.1;;;19;57.9
74437;BME280;62868;52.360;30.424;2023-07-20T18:15:32;1017.2;;;19;57.9
74437;BME280;62868;52.360;30.424;2023-07-20T18:20:07;1017.3;;;19.1;58.1
74437;BME280;62868;52.360;30.424;2023-07-20T18:25:24;1017.3;;;19.1;58.3
74437;BME280;62868;52.360;30.424;2023-07-20T18:30:44;1017.3;;;19.1;58.4
74437;BME280;62868;52.360;30.424;2023-07-20T18:35:52;1017.3;;;19.1;58.5
74437;BME280;62868;52.360;30.424;2023-07-20T18:40:07;1017.3;;;19;58.8
74437;BME280;62868;52.360;30.424;2023-07-20T18:45:06;1017.3;;;18.9;59
74437;BME280;62868;52.360;30.424;2023-07-20T18:50:52;1017.3;;;18.9;59.2
74437;BME280;62868;52.360;30.424;2023-07-20T18:55:26;1017.4;;;18.8;59.3
74437;BME280;62868;52.360;30.424;2023-07-20T19:00:24;1017.4;;;18.8;59.2
74437;BME280;62868;52.360;30.424;2023-07-20T19:05:30;1017.3;;;18.7;59.5
74437;BME280;62868;52.360;30.424;2023-07-20T19:10:57;1017.3;;;18.6;59.6
74437;BME280;62868;52.360;30.424;2023-07-20T19:15:12;1017.5;;;18.5;59.8
74437;BME280;62868;52.360;30.424;2023-07-20T19:20:12;1017.5;;;18.5;59.8
74437;BME280;62868;52.360;30.424;2023-07-20T19:25:38;1017.5;;;18.5;59.9
74437;BME280;62868;52.360;30.424;2023-07-20T19:30:44;1017.6;;;18.5;60
74437;BME280;62868;52.360;30.424;2023-07-20T19:35:52;1017.7;;;18.6;60
74437;BME280;62868;52.360;30.424;2023-07-20T19:40:44;1017.7;;;18.6;60.1
74437;BME280;62868;52.360;30.424;2023-07-20T19:45:12;1017.8;;;18.7;60
74437;BME280;62868;52.360;30.424;2023-07-20T19:50:07;1017.8;;;18.8;60.1
74437;BME280;62868;52.360;30.424;2023-07-20T19:55:55;1017.7;;;18.8;60.1
74437;BME280;62868;52.360;30.424;2023-07-20T20:00:38;1017.8;;;18.8;60.2
74437;BME280;62868;52.360;30.424;2023-07-20T20:05:27;1017.8;;;18.8;60.3
74437;BME280;62868;52.360;30.424;2023-07-20T20:10:52;1017.8;;;18.8;60.3
74437;BME280;62868;52.360;30.424;2023-07-20T20:15:39;1017.7;;;18.8;60.5
74437;BME280;62868;52.360;30.424;2023-07-20T20:20:12;1017.8;;;18.8;60.6
74437;BME280;62868;52.360;30.424;2023-07-20T20:25:06;1017.9;;;18.9;60.5
74437;BME280;62868;52.360;30.424;2023-07-20T20:30:40;1018;;;18.9;60.4
74437;BME280;62868;52.360;30.424;2023-07-20T20:35:52;1018;;;19;60.6
74437;BME280;62868;52.360;30.424;2023-07-20T20:40:52;1018.2;;;19;60.7
74437;BME280;62868;52.360;30.424;2023-07-20T20:45:52;1018.3;;;19;60.6
74437;BME280;62868;52.360;30.424;2023-07-20T20:50:39;1018.3;;;19;60.7
74437;BME280;62868;52.360;30.424;2023-07-20T20:55:06;1018.3;;;19;60.7
74437;BME280;62868;52.360;30.424;2023-07-20T21:00:38;1018.4;;;19;60.8
74437;BME280;62868;52.360;30.424;2023-07-20T21:05:52;1018.4;;;19;60.8
74437;BME280;62868;52.360;30.424;2023-07-20T21:10:26;1018.5;;;18.9;60.8
74437;BME280;62868;52.360;30.424;2023-07-20T21:15:24;1018.5;;;18.9;60.8
74437;BME280;62868;52.360;30.424;2023-07-20T21:20:52;1018.4;;;18.8;60.9
74437;BME280;62868;52.360;30.424;2023-07-20T21:25:12;1018.4;;;18.8;61.1
74437;BME280;62868;52.360;30.424;2023-07-20T21:30:18;1018.4;;;18.7;61.2
74437;BME280;62868;52.360;30.424;2023-07-20T21:35:07;1018.4;;;18.6;61.3
74437;BME280;62868;52.360;30.424;2023-07-20T21:40:32;1018.4;;;18.6;61.4
74437;BME280;62868;52.360;30.424;2023-07-20T21:45:24;1018.5;;;18.5;61.4
74437;BME280;62868;52.360;30.424;2023-07-20T21:50:36;1018.5;;;18.6;61.3
74437;BME280;62868;52.360;30.424;2023-07-20T21:55:52;1018.5;;;18.5;61.4
74437;BME280;62868;52.360;30.424;2023-07-20T22:00:52;1018.6;;;18.5;61.5
74437;BME280;62868;52.360;30.424;2023-07-20T22:05:06;1018.5;;;18.5;61.5
74437;BME280;62868;52.360;30.424;2023-07-20T22:10:06;1018.5;;;18.4;61.7
74437;BME280;62868;52.360;30.424;2023-07-20T22:15:07;1018.5;;;18.4;61.7
74437;BME280;62868;52.360;30.424;2023-07-20T22:20:26;1018.4;;;18.4;61.8
74437;BME280;62868;52.360;30.424;2023-07-20T22:25:52;1018.4;;;18.4;61.9
74437;BME280;62868;52.360;30.424;2023-07-20T22:30:31;1018.3;;;18.3;62
74437;BME280;62868;52.360;30.424;2023-07-20T22:35:07;1018.4;;;18.4;62
74437;BME280;62868;52.360;30.424;2023-07-20T22:40:32;1018.4;;;18.4;62
74437;BME280;62868;52.360;30.424;2023-07-20T22:45:18;1018.4;;;18.4;62.2
74437;BME280;62868;52.360;30.424;2023-07-20T22:50:24;1018.4;;;18.4;62.2
74437;BME280;62868;52.360;30.424;2023-07-20T22:55:30;1018.4;;;18.4;62.3
74437;BME280;62868;52.360;30.424;2023-07-20T23:00:44;1018.4;;;18.4;62.4
74437;BME280;62868;52.360;30.424;2023-07-20T23:05:07;1018.4;;;18.4;62.3
74437;BME280;62868;52.360;30.424;2023-07-20T23:10:24;1018.4;;;18.4;62.4
74437;BME280;62868;52.360;30.424;2023-07-20T23:15:38;1018.4;;;18.4;62.3
74437;BME280;62868;52.360;30.424;2023-07-20T23:20:44;1018.4;;;18.4;62.4
74437;BME280;62868;52.360;30.424;2023-07-20T23:25:24;1018.4;;;18.4;62.5
74437;BME280;62868;52.360;30.424;2023-07-20T23:30:13;1018.4;;;18.4;62.5
74437;BME280;62868;52.360;30.424;2023-07-20T23:35:52;1018.5;;;18.4;62.6
74437;BME280;62868;52.360;30.424;2023-07-20T23:40:13;1018.4;;;18.4;62.6
74437;BME280;62868;52.360;30.424;2023-07-20T23:45:46;1018.5;;;18.4;62.7
74437;BME280;62868;52.360;30.424;2023-07-20T23:50:52;1018.5;;;18.3;62.7
74437;BME280;62868;52.360;30.424;2023-07-20T23:55:52;1018.5;;;18.3;62.8
